Midland, Texas
Current Conditions -  °F | °C
As of 7:15 PM on Tuesday 25 Nov 2014 (Local Time) from KMDD Reporting Station
Clear Clear  
Wind Chill: 50°   Ceiling: Unl
Heat Index: 50°   Visibility: 10mi
Dew Point: 16°   Wind: 9mph
Humidity: 26%   Direction: 210°SSW
Pressure: 30.16"   Gusts: NA
Location:  32°N, 102.07°W
Report Text: KMDD 260115Z AUTO 21008KT 10SM CLR 10/M09 A3016 RMK AO2 T01001088
Loading
Personal Weather Stations






























Interactive Weather Map New forecast layout! Learn more

10-Day Weather Forecast

Advertisements
Track Severe Weather on mobile